メインページ
METAR-TAF:

METAR-TAF

空港 :

ドバイ, アラブ首長国連邦

ドバイ国際空港

緯度: 25-15-10N, 経度: 055-21-52E, 海抜: 8m

現時点の気象観測

当レポートは15分前の12:00(UTC)に作成
北/北西の風 9kt
気温 30°C
湿度 38%
気圧 1007 hPa
視程: 8000m

METAR: OMDB 241200Z 33009KT 8000 NSC 30/14 Q1007 NOSIG

時間: 16:15 (12:15 UTC)

予報

当レポートは1時間13分前の11:02(UTC)に作成
予報は24日の 12時(UTC)から 25日の 18時(UTC)まで有効
北/北西の風 10kt
視程: 8000m
25日の 15時(UTC)から 25日の 17時(UTC)まで徐々に
南/南東の風 9kt
確率 30% :
25日の 02時(UTC)から 25日の 14時(UTC)まで一時的に
変向風 23kt、最大35ktの突風を伴う
視程: 2000m
高度4000ftの千切れ雲あり, 積乱雲.
激しい雷雨, 雨, 風塵
25日の 06時(UTC)から 25日の 08時(UTC)まで徐々に
北/北西の風 15kt
25日の 16時(UTC)から 25日の 18時(UTC)まで徐々に
変向風 2kt

TAF: OMDB 241102Z 2412/2518 33010KT 8000 NSC BECMG 2515/2517 16009KT PROB30 TEMPO 2502/2514 VRB23G35KT 2000 TSRA BLDU BKN040CB BECMG 2506/2508 33015KT BECMG 2516/2518 VRB02KT

4,000以上の空港の気象観測と天気予報(METAR報とTAF報)

利用可能な観測所は地図上に黄色い丸と赤い丸で示す。

丸の上にカーソルを重ねると観測所名を参照できる。

次にクリックすると気象観測と天気予報を参照できる。

マップの切り替え:黒色「×」印の緑ボタンをクリックして拡大、「-」印の緑ボタンをクリックして縮小、緑色の三角印をクリックして隣りの地図に切り替え


METAR-TAF: